Time;durP1;ratioP1;P1;durP2;ratioP2;P2;SDS_P1;SDS_P2;PMS_P1;PMS_P2;Temp;Humidity;BMP_temperature;BMP_pressure;BME280_temperature;BME280_humidity;BME280_pressure;Samples;Min_cycle;Max_cycle;Signal;HPM_P1;HPM_P2
2021/03/05 00:01:29;;;;;;;5.67;3.27;;;19.70;31.30;;;;;;8385345;28;20040;-56
2021/03/05 00:05:31;;;;;;;3.33;2.80;;;19.80;31.30;;;;;;8388114;28;20044;-56
2021/03/05 00:09:32;;;;;;;3.17;2.60;;;19.70;31.30;;;;;;8385582;28;20402;-58
2021/03/05 00:13:32;;;;;;;4.13;2.60;;;19.70;31.90;;;;;;8384537;28;20068;-54
2021/03/05 00:17:33;;;;;;;3.40;3.10;;;19.70;31.80;;;;;;8383389;28;20045;-57
2021/03/05 00:21:34;;;;;;;5.00;2.37;;;19.70;31.30;;;;;;8385279;28;20040;-56
2021/03/05 00:25:35;;;;;;;3.60;2.67;;;19.70;31.30;;;;;;8387702;28;20040;-56
2021/03/05 00:29:35;;;;;;;3.83;2.85;;;19.70;31.30;;;;;;8384774;28;20037;-55
2021/03/05 00:33:36;;;;;;;4.33;2.80;;;19.60;31.30;;;;;;8400266;28;20054;-56
2021/03/05 00:37:37;;;;;;;4.30;2.57;;;19.60;31.40;;;;;;8410265;28;20492;-56
2021/03/05 00:41:38;;;;;;;3.80;2.63;;;19.70;31.40;;;;;;8389495;28;20493;-55
2021/03/05 00:45:38;;;;;;;4.03;2.57;;;19.60;31.30;;;;;;8384882;28;20056;-55
2021/03/05 00:49:39;;;;;;;4.73;2.93;;;19.60;31.40;;;;;;8383565;28;20044;-55
2021/03/05 00:53:39;;;;;;;3.10;2.80;;;19.60;31.40;;;;;;8384458;28;20490;-56
2021/03/05 00:57:40;;;;;;;3.67;2.90;;;19.60;31.40;;;;;;8388897;28;20371;-56
2021/03/05 01:01:41;;;;;;;4.80;2.37;;;19.60;31.40;;;;;;8383904;28;20051;-56
2021/03/05 01:05:41;;;;;;;4.23;2.80;;;19.60;31.40;;;;;;8384691;28;20139;-56
2021/03/05 01:09:42;;;;;;;3.33;2.57;;;19.50;31.40;;;;;;8388893;28;20044;-56
2021/03/05 01:13:42;;;;;;;3.30;2.40;;;19.50;31.30;;;;;;8388688;28;20043;-56
2021/03/05 01:17:43;;;;;;;4.13;2.87;;;19.50;31.40;;;;;;8394926;28;20036;-56
2021/03/05 01:21:44;;;;;;;3.50;2.43;;;19.50;31.40;;;;;;8390047;28;20488;-56
2021/03/05 01:25:44;;;;;;;3.50;2.50;;;19.50;31.40;;;;;;8389023;28;20084;-56
2021/03/05 01:29:45;;;;;;;3.13;2.83;;;19.50;31.40;;;;;;8390294;28;20123;-56
2021/03/05 01:33:45;;;;;;;3.43;2.53;;;19.50;31.40;;;;;;8394433;28;20066;-56
2021/03/05 01:37:46;;;;;;;3.03;2.53;;;19.50;31.50;;;;;;8387984;28;20032;-55
2021/03/05 01:41:47;;;;;;;3.27;2.70;;;19.50;31.40;;;;;;8389696;28;20117;-54
2021/03/05 01:45:48;;;;;;;3.83;3.00;;;19.40;31.40;;;;;;8389460;28;20083;-56
2021/03/05 01:49:48;;;;;;;3.50;2.57;;;19.40;31.40;;;;;;8388515;28;20131;-56
2021/03/05 01:53:50;;;;;;;2.60;2.33;;;19.40;31.40;;;;;;8360581;28;20514;-56
2021/03/05 01:57:51;;;;;;;2.80;2.20;;;19.40;31.40;;;;;;8380394;28;20037;-56
2021/03/05 02:01:52;;;;;;;3.85;2.58;;;19.40;31.40;;;;;;8387278;28;20393;-56
2021/03/05 02:05:53;;;;;;;3.70;2.63;;;19.40;31.50;;;;;;8388726;28;20045;-57
2021/03/05 02:09:53;;;;;;;2.90;2.47;;;19.40;31.50;;;;;;8393426;28;20478;-55
2021/03/05 02:13:56;;;;;;;3.37;2.40;;;19.30;31.50;;;;;;8387186;28;20136;-56
2021/03/05 02:18:15;;;;;;;4.30;2.40;;;19.30;31.40;;;;;;8388374;28;20048;-53
2021/03/05 02:22:32;;;;;;;2.55;2.20;;;19.30;31.40;;;;;;8388193;28;20037;-54
2021/03/05 02:26:38;;;;;;;3.28;2.30;;;19.30;31.40;;;;;;8386465;28;20072;-54
2021/03/05 02:31:00;;;;;;;3.28;2.20;;;19.30;31.40;;;;;;8392604;28;20032;-54
2021/03/05 02:35:02;;;;;;;4.40;2.45;;;19.30;31.40;;;;;;8386105;28;20033;-54
2021/03/05 02:39:13;;;;;;;4.25;2.92;;;19.30;31.40;;;;;;8387849;28;20060;-55
2021/03/05 02:43:16;;;;;;;;;;;19.30;31.40;;;;;;8388300;28;20532;-55
2021/03/05 02:47:20;;;;;;;2.30;2.03;;;19.30;31.40;;;;;;8385956;28;19924;-54
2021/03/05 02:51:24;;;;;;;2.97;2.20;;;19.20;31.40;;;;;;8391893;28;20490;-54
2021/03/05 02:55:27;;;;;;;2.70;2.10;;;19.20;31.40;;;;;;8413885;28;20036;-54
2021/03/05 02:59:31;;;;;;;2.72;2.17;;;19.20;31.40;;;;;;8416308;28;20162;-54
2021/03/05 03:03:33;;;;;;;2.88;2.25;;;19.20;31.40;;;;;;8394419;28;20047;-54
2021/03/05 03:07:35;;;;;;;3.13;2.38;;;19.20;31.40;;;;;;8424702;28;20448;-54
2021/03/05 03:11:40;;;;;;;6.25;3.05;;;19.20;31.40;;;;;;8386263;28;20109;-54
2021/03/05 03:15:41;;;;;;;2.78;1.98;;;19.20;31.50;;;;;;8386554;28;20041;-54
2021/03/05 03:19:49;;;;;;;2.55;2.05;;;19.20;31.40;;;;;;8384807;28;20099;-55
2021/03/05 03:23:50;;;;;;;2.83;2.25;;;19.20;31.40;;;;;;8386539;28;20482;-54
2021/03/05 03:27:51;;;;;;;4.63;2.40;;;19.10;31.40;;;;;;8390759;28;20051;-55
2021/03/05 03:31:51;;;;;;;4.37;2.90;;;19.10;31.40;;;;;;8383595;28;20131;-55
2021/03/05 03:35:53;;;;;;;2.53;2.30;;;19.10;31.40;;;;;;8386326;28;20131;-55
2021/03/05 03:39:53;;;;;;;2.90;2.08;;;19.10;31.40;;;;;;8385834;28;20274;-55
2021/03/05 03:43:54;;;;;;;3.10;2.33;;;19.10;31.40;;;;;;8388572;28;20040;-54
2021/03/05 03:47:56;;;;;;;4.47;1.90;;;19.10;31.40;;;;;;8385539;28;20052;-55
2021/03/05 03:52:01;;;;;;;3.63;2.65;;;19.10;31.40;;;;;;8385616;28;20048;-54
2021/03/05 03:56:04;;;;;;;3.08;2.50;;;19.10;32.00;;;;;;8395620;28;20067;-55
2021/03/05 04:00:07;;;;;;;3.28;2.20;;;19.00;31.40;;;;;;8415917;28;20115;-55
2021/03/05 04:04:10;;;;;;;3.63;2.33;;;19.10;31.50;;;;;;8389684;28;20036;-55
2021/03/05 04:08:13;;;;;;;3.38;2.15;;;19.00;31.40;;;;;;8383349;28;20524;-55
2021/03/05 04:12:15;;;;;;;2.40;2.15;;;19.00;31.50;;;;;;8385438;28;20040;-55
2021/03/05 04:16:15;;;;;;;3.38;2.33;;;19.00;31.50;;;;;;8385438;28;20029;-54
2021/03/05 04:20:19;;;;;;;2.70;1.90;;;19.00;31.40;;;;;;8388078;28;20047;-55
2021/03/05 04:24:20;;;;;;;2.58;1.80;;;19.10;31.40;;;;;;8385215;28;20040;-55
2021/03/05 04:28:21;;;;;;;2.28;1.85;;;19.00;31.30;;;;;;8384910;28;20461;-55
2021/03/05 04:32:21;;;;;;;2.43;1.87;;;19.10;31.40;;;;;;8383278;28;20036;-55
2021/03/05 04:36:22;;;;;;;2.57;2.03;;;19.10;31.40;;;;;;8385139;28;20076;-54
2021/03/05 04:40:22;;;;;;;2.40;1.97;;;19.10;31.30;;;;;;8389276;28;20040;-55
2021/03/05 04:44:23;;;;;;;2.77;2.53;;;19.10;31.40;;;;;;8388708;28;20029;-55
2021/03/05 04:48:23;;;;;;;3.00;2.17;;;19.10;31.40;;;;;;8406351;27;20075;-56
2021/03/05 04:52:24;;;;;;;2.83;2.23;;;19.00;31.30;;;;;;8419102;28;20055;-55
2021/03/05 04:56:25;;;;;;;2.57;2.00;;;19.00;31.40;;;;;;8394117;28;20079;-55
2021/03/05 05:00:26;;;;;;;2.35;1.95;;;19.00;31.40;;;;;;8390851;28;20052;-55
2021/03/05 05:04:26;;;;;;;2.00;1.80;;;19.00;31.40;;;;;;8390912;28;20043;-54
2021/03/05 05:08:27;;;;;;;2.50;1.93;;;19.00;31.50;;;;;;8389117;28;20517;-55
2021/03/05 05:12:27;;;;;;;3.53;1.97;;;19.00;31.50;;;;;;8395210;28;20036;-55
2021/03/05 05:16:28;;;;;;;2.67;2.00;;;19.00;31.50;;;;;;8390564;28;20047;-55
2021/03/05 05:20:29;;;;;;;3.10;2.03;;;19.00;31.50;;;;;;8389123;28;20507;-55
2021/03/05 05:24:29;;;;;;;1.93;1.77;;;19.00;31.50;;;;;;8390763;28;20267;-55
2021/03/05 05:28:30;;;;;;;3.10;2.10;;;19.00;31.50;;;;;;8390340;28;22250;-55
2021/03/05 05:32:31;;;;;;;3.73;2.10;;;19.00;31.50;;;;;;8392651;28;20122;-56
2021/03/05 05:36:31;;;;;;;2.10;1.90;;;19.00;31.50;;;;;;8415916;28;20051;-56
2021/03/05 05:40:32;;;;;;;2.70;2.43;;;18.90;31.50;;;;;;8406853;28;20044;-55
2021/03/05 05:44:33;;;;;;;2.47;1.90;;;19.00;31.50;;;;;;8388883;28;20032;-55
2021/03/05 05:48:38;;;;;;;2.40;1.60;;;19.00;32.10;;;;;;8393991;28;20881;-55
2021/03/05 05:52:40;;;;;;;3.40;2.10;;;18.90;31.50;;;;;;8386665;28;20045;-55
2021/03/05 05:56:43;;;;;;;3.15;2.10;;;18.90;31.40;;;;;;8389102;28;20323;-54
2021/03/05 06:00:44;;;;;;;3.15;2.03;;;18.90;31.50;;;;;;8388997;28;20032;-55
2021/03/05 06:04:45;;;;;;;3.08;2.60;;;18.90;31.50;;;;;;8387736;28;20040;-55
2021/03/05 06:08:45;;;;;;;3.30;2.10;;;18.90;31.50;;;;;;8393307;28;20509;-55
2021/03/05 06:12:48;;;;;;;3.90;2.10;;;18.90;31.50;;;;;;8404037;28;20283;-55
2021/03/05 06:16:59;;;;;;;3.00;2.55;;;18.90;31.50;;;;;;8386828;28;20486;-55
2021/03/05 06:20:59;;;;;;;2.58;2.08;;;18.90;31.50;;;;;;8388836;28;20056;-55
2021/03/05 06:25:00;;;;;;;4.97;2.30;;;18.90;31.60;;;;;;8392754;28;20117;-54
2021/03/05 06:29:05;;;;;;;2.67;2.00;;;18.90;31.50;;;;;;8387187;28;20463;-55
2021/03/05 06:33:26;;;;;;;3.70;2.50;;;18.90;31.60;;;;;;8388083;28;20050;-55
2021/03/05 06:37:40;;;;;;;2.95;2.10;;;18.90;31.60;;;;;;8388087;28;20044;-55
2021/03/05 06:41:40;;;;;;;2.55;2.35;;;18.80;31.50;;;;;;8386349;28;20033;-55
2021/03/05 06:45:41;;;;;;;2.77;2.00;;;18.80;31.50;;;;;;8391810;28;20524;-55
2021/03/05 06:49:44;;;;;;;3.37;2.10;;;18.80;31.50;;;;;;8386076;28;20048;-55
2021/03/05 06:53:44;;;;;;;3.60;2.30;;;18.80;31.50;;;;;;8387275;28;20094;-55
2021/03/05 06:57:45;;;;;;;2.80;2.40;;;18.80;31.60;;;;;;8396316;28;20036;-55
2021/03/05 07:01:56;;;;;;;2.20;2.00;;;18.80;31.60;;;;;;8421942;28;20741;-55
2021/03/05 07:05:58;;;;;;;;;;;18.80;31.50;;;;;;8358010;28;20084;-55
2021/03/05 07:09:59;;;;;;;4.10;2.30;;;18.80;31.60;;;;;;8378879;28;19962;-55
2021/03/05 07:14:00;;;;;;;2.85;2.30;;;18.80;31.60;;;;;;8385047;28;20032;-55
2021/03/05 07:18:00;;;;;;;3.17;2.30;;;18.80;31.60;;;;;;8386730;28;20065;-55
2021/03/05 07:22:02;;;;;;;2.87;2.30;;;18.80;31.60;;;;;;8390962;28;20482;-55
2021/03/05 07:26:03;;;;;;;;;;;18.80;31.60;;;;;;8385763;28;20066;-55
2021/03/05 07:30:11;;;;;;;4.18;2.40;;;18.80;31.70;;;;;;8386426;28;19923;-55
2021/03/05 07:34:17;;;;;;;2.65;2.25;;;18.80;31.70;;;;;;8385635;28;20051;-54
2021/03/05 07:38:23;;;;;;;3.67;2.45;;;18.70;31.70;;;;;;8384095;28;20389;-53
2021/03/05 07:42:24;;;;;;;2.78;2.05;;;18.80;31.70;;;;;;8389887;28;20041;-54
2021/03/05 07:46:25;;;;;;;3.13;2.30;;;18.80;31.70;;;;;;8386111;28;20459;-55
2021/03/05 07:50:26;;;;;;;3.78;2.33;;;18.70;31.70;;;;;;8398579;28;20036;-55
2021/03/05 07:54:49;;;;;;;3.97;2.25;;;18.70;31.70;;;;;;8413901;28;20045;-54
2021/03/05 07:58:50;;;;;;;2.42;2.17;;;18.70;31.70;;;;;;8388348;28;20036;-54
2021/03/05 08:02:56;;;;;;;4.20;2.40;;;18.70;31.70;;;;;;8385635;28;20042;-55
2021/03/05 08:07:10;;;;;;;2.78;2.03;;;18.80;31.70;;;;;;8407012;28;20044;-53
2021/03/05 08:11:26;;;;;;;2.35;2.00;;;18.70;31.70;;;;;;8402033;28;20040;-55
2021/03/05 08:15:27;;;;;;;3.45;2.30;;;18.70;31.70;;;;;;8391408;28;20036;-55
2021/03/05 08:19:33;;;;;;;2.40;1.83;;;18.70;31.70;;;;;;8422783;28;20446;-54
2021/03/05 08:23:34;;;;;;;2.28;2.08;;;18.70;31.70;;;;;;8385065;28;20497;-55
2021/03/05 08:27:36;;;;;;;3.60;2.40;;;18.70;31.70;;;;;;8384854;28;20088;-54
2021/03/05 08:31:37;;;;;;;3.85;2.75;;;18.70;31.70;;;;;;8383126;28;20479;-54
2021/03/05 08:35:41;;;;;;;2.92;2.17;;;18.70;31.70;;;;;;8385168;28;20041;-54
2021/03/05 08:39:41;;;;;;;2.70;2.25;;;18.70;31.70;;;;;;8389396;28;20512;-55
2021/03/05 08:43:42;;;;;;;2.43;2.23;;;18.70;31.70;;;;;;8397538;28;20033;-56
2021/03/05 08:48:03;;;;;;;2.77;1.90;;;18.70;31.70;;;;;;8384769;28;20500;-56
2021/03/05 08:52:04;;;;;;;3.15;2.47;;;18.70;31.70;;;;;;8384372;28;20501;-55
2021/03/05 08:56:05;;;;;;;2.92;2.15;;;18.70;31.70;;;;;;8387453;28;20048;-54
2021/03/05 09:00:09;;;;;;;3.13;2.50;;;18.70;31.70;;;;;;8384369;28;20040;-54
2021/03/05 09:04:12;;;;;;;3.47;2.45;;;18.70;31.70;;;;;;8384151;28;20114;-54
2021/03/05 09:08:15;;;;;;;2.60;2.40;;;18.70;31.70;;;;;;8383380;28;20036;-54
2021/03/05 09:12:17;;;;;;;4.20;2.33;;;18.70;31.70;;;;;;8383890;28;20045;-54
2021/03/05 09:16:18;;;;;;;2.92;2.35;;;18.70;31.70;;;;;;8388635;28;20035;-54
2021/03/05 09:20:18;;;;;;;3.00;2.70;;;18.70;31.70;;;;;;8382894;28;20036;-54
2021/03/05 09:24:19;;;;;;;3.20;2.47;;;18.70;31.80;;;;;;8384018;28;20107;-54
2021/03/05 09:28:21;;;;;;;2.87;2.43;;;18.60;31.70;;;;;;8384643;28;20421;-54
2021/03/05 09:32:22;;;;;;;5.88;2.63;;;18.70;31.80;;;;;;8392624;28;20476;-54
2021/03/05 09:36:24;;;;;;;2.47;2.20;;;18.70;31.80;;;;;;8389697;28;20086;-53
2021/03/05 09:40:26;;;;;;;2.58;2.17;;;18.70;32.40;;;;;;8390028;28;20051;-54
2021/03/05 09:44:26;;;;;;;3.08;2.58;;;18.70;31.80;;;;;;8399359;28;20843;-53
2021/03/05 09:48:31;;;;;;;2.47;2.27;;;18.70;31.80;;;;;;8420671;28;20147;-54
2021/03/05 09:52:31;;;;;;;5.15;2.30;;;18.70;31.80;;;;;;8393742;28;20033;-55
2021/03/05 09:56:42;;;;;;;3.70;3.10;;;18.70;31.80;;;;;;8387411;28;20047;-54
2021/03/05 10:00:42;;;;;;;2.60;2.40;;;18.70;31.80;;;;;;8406213;28;20032;-54
2021/03/05 10:04:45;;;;;;;3.33;2.33;;;18.70;31.80;;;;;;8419992;28;20485;-53
2021/03/05 10:08:45;;;;;;;2.60;2.20;;;18.60;31.70;;;;;;8427035;28;20052;-54
2021/03/05 10:12:53;;;;;;;3.40;2.40;;;18.60;31.70;;;;;;8390766;28;20047;-54
2021/03/05 10:17:04;;;;;;;2.25;2.03;;;18.60;31.60;;;;;;8386784;28;20041;-55
2021/03/05 10:21:10;;;;;;;2.92;1.90;;;18.70;31.70;;;;;;8388538;28;20067;-54
2021/03/05 10:25:11;;;;;;;3.38;2.60;;;18.60;31.60;;;;;;8388041;28;20021;-54
2021/03/05 10:29:12;;;;;;;;;;;18.60;31.60;;;;;;8391291;28;20041;-55
2021/03/05 10:33:12;;;;;;;2.28;2.03;;;18.60;31.70;;;;;;8388969;28;19916;-54
2021/03/05 10:37:15;;;;;;;3.00;2.23;;;18.60;31.60;;;;;;8387731;28;20036;-54
2021/03/05 10:41:18;;;;;;;2.15;1.95;;;18.60;31.60;;;;;;8385940;28;20037;-55
2021/03/05 10:45:19;;;;;;;2.78;2.17;;;18.60;31.70;;;;;;8392332;28;20040;-55
2021/03/05 10:49:19;;;;;;;2.57;2.00;;;18.60;31.60;;;;;;8387604;28;20071;-55
2021/03/05 10:53:20;;;;;;;3.63;2.20;;;18.60;31.70;;;;;;8407158;28;20078;-54
2021/03/05 10:57:22;;;;;;;3.10;2.00;;;18.60;31.70;;;;;;8408044;28;20041;-55
2021/03/05 11:01:22;;;;;;;3.88;1.73;;;18.60;31.70;;;;;;8387363;28;23799;-54
2021/03/05 11:05:23;;;;;;;1.73;1.60;;;18.70;31.70;;;;;;8389853;28;20139;-53
2021/03/05 11:09:25;;;;;;;3.43;2.07;;;18.70;31.70;;;;;;8386632;28;20083;-55
2021/03/05 11:13:25;;;;;;;3.15;2.47;;;18.80;31.60;;;;;;8386712;28;20770;-54
2021/03/05 11:17:26;;;;;;;3.07;1.90;;;18.80;31.50;;;;;;8391025;28;20040;-53
2021/03/05 11:21:27;;;;;;;1.83;1.70;;;18.90;31.40;;;;;;8424556;28;20095;-54
2021/03/05 11:25:27;;;;;;;2.23;1.80;;;19.00;31.50;;;;;;8389807;28;20036;-55
2021/03/05 11:29:29;;;;;;;2.13;1.90;;;19.00;31.40;;;;;;8404260;28;20044;-55
2021/03/05 11:33:30;;;;;;;2.92;2.10;;;19.00;31.40;;;;;;8409057;28;20041;-54
2021/03/05 11:37:31;;;;;;;2.50;1.67;;;19.10;31.40;;;;;;8387133;28;20028;-55
2021/03/05 11:41:31;;;;;;;3.33;1.67;;;19.10;31.30;;;;;;8355895;28;20430;-54
2021/03/05 11:45:32;;;;;;;1.67;1.57;;;19.10;31.30;;;;;;8379650;28;20036;-55
2021/03/05 11:49:32;;;;;;;1.93;1.63;;;19.20;31.30;;;;;;8385714;28;20049;-55
2021/03/05 11:53:34;;;;;;;2.90;1.83;;;19.20;31.30;;;;;;8383433;28;20033;-54
2021/03/05 11:57:34;;;;;;;2.08;1.88;;;19.20;31.30;;;;;;8390075;28;20064;-54
2021/03/05 12:01:35;;;;;;;2.20;1.80;;;19.30;31.40;;;;;;8383992;28;20051;-54
2021/03/05 12:05:35;;;;;;;3.70;1.87;;;19.30;31.30;;;;;;8385883;28;20517;-55
2021/03/05 12:09:36;;;;;;;2.20;1.93;;;19.30;31.30;;;;;;8393286;28;20497;-54
2021/03/05 12:13:36;;;;;;;1.93;1.50;;;19.30;31.30;;;;;;8421645;28;20496;-54
2021/03/05 12:17:37;;;;;;;1.77;1.50;;;19.40;31.30;;;;;;8386771;28;20036;-56
2021/03/05 12:21:38;;;;;;;1.88;1.75;;;19.40;31.30;;;;;;8385209;28;20590;-56
2021/03/05 12:25:38;;;;;;;2.90;1.83;;;19.40;31.30;;;;;;8383192;28;20037;-56
2021/03/05 12:29:39;;;;;;;1.97;1.60;;;19.50;31.30;;;;;;8384865;28;20102;-53
2021/03/05 12:33:41;;;;;;;1.93;1.43;;;19.40;31.30;;;;;;8389641;28;20041;-55
2021/03/05 12:37:43;;;;;;;2.78;1.60;;;19.50;31.30;;;;;;8383964;28;20043;-55
2021/03/05 12:41:43;;;;;;;2.10;1.70;;;19.50;31.20;;;;;;8384786;28;20366;-55
2021/03/05 12:45:44;;;;;;;1.70;1.43;;;19.60;31.30;;;;;;8384448;28;20025;-55
2021/03/05 12:49:44;;;;;;;3.30;1.87;;;19.60;31.20;;;;;;8387370;28;20095;-56
2021/03/05 12:53:45;;;;;;;1.73;1.60;;;19.60;31.30;;;;;;8384309;28;20486;-56
2021/03/05 12:57:45;;;;;;;2.65;1.98;;;19.60;31.20;;;;;;8384890;28;20086;-55
2021/03/05 13:01:46;;;;;;;3.43;1.83;;;19.60;31.20;;;;;;8383316;28;20039;-54
2021/03/05 13:05:46;;;;;;;2.60;1.73;;;19.60;31.20;;;;;;8395230;28;20561;-54
2021/03/05 13:09:47;;;;;;;1.83;1.73;;;19.60;31.20;;;;;;8390496;28;20045;-54
2021/03/05 13:13:48;;;;;;;2.33;1.70;;;19.70;31.20;;;;;;8388685;28;20378;-55
2021/03/05 13:17:48;;;;;;;3.07;1.60;;;19.70;31.10;;;;;;8390580;28;20116;-55
2021/03/05 13:21:49;;;;;;;2.30;1.67;;;19.70;31.20;;;;;;8390207;28;20037;-55
2021/03/05 13:25:49;;;;;;;1.77;1.40;;;19.80;31.20;;;;;;8393006;28;20040;-55
2021/03/05 13:29:50;;;;;;;1.53;1.43;;;19.80;31.20;;;;;;8416118;28;20081;-54
2021/03/05 13:33:50;;;;;;;3.23;1.63;;;19.80;31.20;;;;;;8406728;28;20051;-55
2021/03/05 13:37:51;;;;;;;2.70;1.40;;;19.80;31.10;;;;;;8388060;28;20085;-55
2021/03/05 13:41:52;;;;;;;1.40;1.23;;;19.80;31.10;;;;;;8394163;28;20417;-55
2021/03/05 13:45:53;;;;;;;1.88;1.63;;;19.80;31.00;;;;;;8389565;28;20498;-55
2021/03/05 13:49:53;;;;;;;1.57;1.47;;;19.90;31.10;;;;;;8387582;28;20047;-55
2021/03/05 13:53:54;;;;;;;2.50;1.63;;;19.90;31.10;;;;;;8389427;28;20041;-56
2021/03/05 13:57:55;;;;;;;1.60;1.33;;;19.90;31.10;;;;;;8390232;28;20044;-55
2021/03/05 14:01:55;;;;;;;1.63;1.33;;;19.90;31.00;;;;;;8390897;28;20381;-56
2021/03/05 14:05:56;;;;;;;1.47;1.30;;;19.90;31.00;;;;;;8388707;28;20098;-56
2021/03/05 14:09:56;;;;;;;2.23;1.53;;;20.00;31.00;;;;;;8388887;28;20086;-56
2021/03/05 14:13:57;;;;;;;1.83;1.40;;;20.00;31.00;;;;;;8386095;28;20041;-55
2021/03/05 14:17:58;;;;;;;1.90;1.53;;;20.00;31.00;;;;;;8393159;28;20033;-56
2021/03/05 14:21:58;;;;;;;2.37;1.40;;;20.00;31.00;;;;;;8415512;28;20036;-56
2021/03/05 14:25:59;;;;;;;1.55;1.35;;;20.00;31.00;;;;;;8402070;28;20435;-56
2021/03/05 14:30:00;;;;;;;1.30;1.20;;;20.10;31.00;;;;;;8388195;28;20146;-55
2021/03/05 14:34:00;;;;;;;1.40;1.30;;;20.10;31.00;;;;;;8392564;28;20032;-56
2021/03/05 14:38:01;;;;;;;2.00;1.53;;;20.10;31.00;;;;;;8386333;28;20124;-55
2021/03/05 14:42:01;;;;;;;1.53;1.30;;;20.10;30.90;;;;;;8387975;28;20768;-55
2021/03/05 14:46:02;;;;;;;1.30;1.20;;;20.10;30.90;;;;;;8402864;28;20049;-56
2021/03/05 14:50:04;;;;;;;2.80;1.95;;;20.10;30.80;;;;;;8385878;28;20040;-55
2021/03/05 14:54:05;;;;;;;1.95;1.60;;;20.10;30.80;;;;;;8392184;28;20111;-55
2021/03/05 14:58:05;;;;;;;2.07;1.43;;;20.10;30.90;;;;;;8402565;28;20044;-55
2021/03/05 15:02:06;;;;;;;1.73;1.47;;;20.20;30.90;;;;;;8400003;28;20036;-56
2021/03/05 15:06:07;;;;;;;1.87;1.50;;;20.20;30.90;;;;;;8414753;28;20044;-55
2021/03/05 15:10:08;;;;;;;2.00;1.43;;;20.20;30.90;;;;;;8391509;28;20055;-55
2021/03/05 15:14:08;;;;;;;1.88;1.50;;;20.20;30.90;;;;;;8413195;28;20511;-55
2021/03/05 15:18:09;;;;;;;1.63;1.53;;;20.20;30.80;;;;;;8399045;28;20051;-55
2021/03/05 15:22:10;;;;;;;2.90;1.40;;;20.20;30.80;;;;;;8384710;28;20036;-54
2021/03/05 15:26:10;;;;;;;1.50;1.30;;;20.30;30.80;;;;;;8369986;28;20349;-55
2021/03/05 15:30:12;;;;;;;3.63;1.77;;;20.20;30.80;;;;;;8358642;28;20039;-54
2021/03/05 15:34:12;;;;;;;;;;;20.30;30.80;;;;;;8361146;28;20033;-55
2021/03/05 15:38:13;;;;;;;1.47;1.37;;;20.30;30.80;;;;;;8353776;28;19928;-54
2021/03/05 15:42:13;;;;;;;2.13;1.70;;;20.30;30.80;;;;;;8363208;28;20068;-53
2021/03/05 15:46:13;;;;;;;2.27;1.67;;;20.30;30.70;;;;;;8374378;28;20056;-55
2021/03/05 15:50:16;;;;;;;1.97;1.50;;;20.30;30.80;;;;;;8366415;28;20040;-53
2021/03/05 15:54:17;;;;;;;1.85;1.45;;;20.30;30.70;;;;;;8373462;28;20044;-50
2021/03/05 15:58:17;;;;;;;1.90;1.53;;;20.30;30.70;;;;;;8378453;28;20052;-54
2021/03/05 16:02:18;;;;;;;2.10;1.20;;;20.30;30.60;;;;;;8372586;27;20062;-54
2021/03/05 16:06:18;;;;;;;1.47;1.30;;;20.30;30.60;;;;;;8378269;28;20048;-54
2021/03/05 16:10:19;;;;;;;1.53;1.40;;;20.30;30.60;;;;;;8375295;28;20094;-53
2021/03/05 16:14:20;;;;;;;2.17;1.50;;;20.30;30.60;;;;;;8363908;28;20041;-54
2021/03/05 16:18:20;;;;;;;2.07;1.60;;;20.30;30.60;;;;;;8366389;28;20060;-53
2021/03/05 16:22:21;;;;;;;2.17;1.60;;;20.40;30.60;;;;;;8378877;28;20083;-54
2021/03/05 16:26:21;;;;;;;1.50;1.40;;;20.40;30.60;;;;;;8360513;28;20041;-56
2021/03/05 16:30:22;;;;;;;1.50;1.40;;;20.40;30.60;;;;;;8364972;28;20040;-55
2021/03/05 16:34:25;;;;;;;1.87;1.60;;;20.40;30.60;;;;;;8357637;28;20451;-54
2021/03/05 16:38:25;;;;;;;2.10;1.65;;;20.40;30.60;;;;;;8370470;27;20070;-55
2021/03/05 16:42:26;;;;;;;1.83;1.50;;;20.40;30.50;;;;;;8382413;28;20121;-53
2021/03/05 16:46:27;;;;;;;1.97;1.57;;;20.40;30.60;;;;;;8388855;27;20089;-53
2021/03/05 16:50:27;;;;;;;2.22;1.30;;;20.40;30.60;;;;;;8370490;28;20418;-54
2021/03/05 16:54:29;;;;;;;1.63;1.50;;;20.40;30.50;;;;;;8372128;28;20128;-54
2021/03/05 16:58:29;;;;;;;2.20;1.58;;;20.40;30.50;;;;;;8384474;28;20378;-54
2021/03/05 17:02:30;;;;;;;2.53;1.60;;;20.40;30.50;;;;;;8375084;28;20128;-54
2021/03/05 17:06:30;;;;;;;2.00;1.20;;;20.40;30.50;;;;;;8380953;28;20410;-54
2021/03/05 17:10:31;;;;;;;2.30;1.50;;;20.40;30.50;;;;;;8373210;28;20482;-52
2021/03/05 17:14:31;;;;;;;3.00;1.50;;;20.50;30.50;;;;;;8382033;28;20036;-55
2021/03/05 17:18:32;;;;;;;1.60;1.50;;;20.50;30.50;;;;;;8369834;28;20433;-51
2021/03/05 17:22:33;;;;;;;2.27;1.50;;;20.40;30.50;;;;;;8358667;28;20518;-53
2021/03/05 17:26:33;;;;;;;1.60;1.40;;;20.50;30.50;;;;;;8359034;28;20139;-54
2021/03/05 17:30:34;;;;;;;1.77;1.30;;;20.50;30.50;;;;;;8377260;28;20036;-55
2021/03/05 17:34:34;;;;;;;1.97;1.60;;;20.50;30.50;;;;;;8364372;27;20127;-56
2021/03/05 17:38:35;;;;;;;2.67;1.87;;;20.50;30.50;;;;;;8363798;28;20044;-54
2021/03/05 17:42:36;;;;;;;2.30;1.77;;;20.50;30.50;;;;;;8387181;28;20048;-56
2021/03/05 17:46:37;;;;;;;2.05;1.20;;;20.50;30.40;;;;;;8392057;28;20040;-55
2021/03/05 17:50:37;;;;;;;2.05;1.40;;;20.50;30.40;;;;;;8388192;28;20211;-54
2021/03/05 17:54:38;;;;;;;2.07;1.60;;;20.50;30.40;;;;;;8389630;28;20465;-55
2021/03/05 17:58:38;;;;;;;1.67;1.57;;;20.60;30.50;;;;;;8387536;28;20067;-55
2021/03/05 18:02:39;;;;;;;2.07;1.50;;;20.50;30.40;;;;;;8389445;28;20033;-55
2021/03/05 18:06:39;;;;;;;2.73;1.97;;;20.60;30.40;;;;;;8393247;28;20052;-55
2021/03/05 18:10:40;;;;;;;1.63;1.40;;;20.60;30.40;;;;;;8387576;28;20040;-55
2021/03/05 18:14:41;;;;;;;2.10;1.57;;;20.60;30.40;;;;;;8389091;28;20040;-56
2021/03/05 18:18:42;;;;;;;2.10;1.48;;;20.60;30.40;;;;;;8394631;28;20047;-56
2021/03/05 18:22:42;;;;;;;2.37;1.73;;;20.60;30.40;;;;;;8424758;28;20040;-55
2021/03/05 18:26:43;;;;;;;2.33;1.53;;;20.60;30.40;;;;;;8391349;28;20404;-55
2021/03/05 18:30:43;;;;;;;2.20;1.40;;;20.60;30.40;;;;;;8388480;28;20110;-55
2021/03/05 18:34:44;;;;;;;3.43;1.60;;;20.60;30.30;;;;;;8386224;28;20036;-55
2021/03/05 18:38:45;;;;;;;2.87;1.67;;;20.50;30.30;;;;;;8388849;28;20040;-55
2021/03/05 18:42:45;;;;;;;2.50;1.73;;;20.50;30.30;;;;;;8391756;28;20093;-56
2021/03/05 18:46:46;;;;;;;2.43;1.80;;;20.50;30.30;;;;;;8386016;28;20048;-54
2021/03/05 18:50:47;;;;;;;2.57;2.10;;;20.40;30.30;;;;;;8388161;28;20058;-55
2021/03/05 18:54:47;;;;;;;2.53;1.97;;;20.40;30.30;;;;;;8387501;28;20037;-54
2021/03/05 18:58:48;;;;;;;2.80;2.00;;;20.40;30.30;;;;;;8390005;28;20032;-54
2021/03/05 19:02:50;;;;;;;3.20;1.83;;;20.30;30.30;;;;;;8387126;28;20044;-56
2021/03/05 19:06:50;;;;;;;;;;;20.30;30.30;;;;;;8387500;28;20337;-54
2021/03/05 19:10:50;;;;;;;2.47;1.90;;;20.30;30.30;;;;;;8385670;28;19973;-54
2021/03/05 19:14:51;;;;;;;2.97;2.10;;;20.20;30.30;;;;;;8391373;28;20056;-54
2021/03/05 19:18:52;;;;;;;2.10;1.90;;;20.20;30.40;;;;;;8386802;28;20469;-55
2021/03/05 19:22:52;;;;;;;2.00;1.80;;;20.10;30.30;;;;;;8385091;28;20047;-55
2021/03/05 19:26:53;;;;;;;3.13;1.97;;;20.10;30.40;;;;;;8386373;28;20045;-55
2021/03/05 19:30:53;;;;;;;3.10;2.00;;;20.10;30.30;;;;;;8386530;28;20024;-54
2021/03/05 19:34:54;;;;;;;2.67;1.97;;;20.10;30.30;;;;;;8388985;28;20983;-54
2021/03/05 19:38:54;;;;;;;2.00;1.67;;;20.00;30.30;;;;;;8410703;28;20039;-54
2021/03/05 19:42:55;;;;;;;2.90;1.80;;;20.00;30.30;;;;;;8413945;28;20035;-55
2021/03/05 19:46:55;;;;;;;2.37;2.00;;;20.00;30.30;;;;;;8388383;28;20044;-54
2021/03/05 19:50:57;;;;;;;3.10;2.10;;;20.00;30.30;;;;;;8423886;28;20035;-54
2021/03/05 19:54:58;;;;;;;;;;;19.90;30.30;;;;;;8390650;28;20152;-55
2021/03/05 19:58:58;;;;;;;3.27;2.03;;;19.90;30.40;;;;;;8384242;28;19947;-54
2021/03/05 20:02:59;;;;;;;2.87;2.00;;;19.90;30.30;;;;;;8386423;28;20087;-55
2021/03/05 20:06:59;;;;;;;2.27;2.00;;;19.80;30.30;;;;;;8390020;28;20048;-54
2021/03/05 20:11:01;;;;;;;2.83;1.90;;;19.80;30.30;;;;;;8383976;28;20048;-54
2021/03/05 20:15:02;;;;;;;2.40;1.90;;;19.80;30.30;;;;;;8385291;28;20036;-54
2021/03/05 20:19:03;;;;;;;2.80;2.00;;;19.80;30.40;;;;;;8397375;28;20036;-55
2021/03/05 20:23:04;;;;;;;;;;;19.80;30.40;;;;;;8412439;28;20041;-55
2021/03/05 20:27:06;;;;;;;3.27;2.37;;;19.70;30.30;;;;;;8389894;28;19920;-55
2021/03/05 20:31:07;;;;;;;2.70;1.90;;;19.70;30.40;;;;;;8410852;28;20119;-53
2021/03/05 20:35:08;;;;;;;3.73;1.80;;;19.70;30.40;;;;;;8399848;28;20099;-55
2021/03/05 20:39:08;;;;;;;2.78;1.80;;;19.60;30.40;;;;;;8384963;28;20036;-55
2021/03/05 20:43:09;;;;;;;1.83;1.70;;;19.60;30.40;;;;;;8389248;28;20032;-54
2021/03/05 20:47:09;;;;;;;2.67;2.23;;;19.60;30.40;;;;;;8382893;28;20048;-53
2021/03/05 20:51:11;;;;;;;2.70;2.03;;;19.50;30.50;;;;;;8384650;28;20039;-54
2021/03/05 20:55:12;;;;;;;2.88;1.90;;;19.50;30.50;;;;;;8384885;28;20039;-55
2021/03/05 20:59:12;;;;;;;2.40;1.90;;;19.50;30.50;;;;;;8383941;28;20032;-54